Time;durP1;ratioP1;P1;durP2;ratioP2;P2;SDS_P1;SDS_P2;PMS_P1;PMS_P2;Temp;Humidity;BMP_temperature;BMP_pressure;BME280_temperature;BME280_humidity;BME280_pressure;Samples;Min_cycle;Max_cycle;Signal;HPM_P1;HPM_P2
2021/12/03 00:01:26;;;;;;;3.97;2.20;;;-6.20;99.90;;;;;;5091742;28;20025;-64
2021/12/03 00:03:53;;;;;;;3.88;2.20;;;-6.20;99.90;;;;;;5091829;28;20029;-63
2021/12/03 00:06:19;;;;;;;3.53;2.20;;;-6.20;99.90;;;;;;5091632;28;20031;-63
2021/12/03 00:08:45;;;;;;;4.53;2.20;;;-6.20;99.90;;;;;;5091667;28;20032;-66
2021/12/03 00:11:13;;;;;;;2.80;2.03;;;-6.20;99.90;;;;;;5092888;28;20031;-65
2021/12/03 00:13:40;;;;;;;4.72;2.08;;;-6.20;99.90;;;;;;5096275;28;20027;-65
2021/12/03 00:16:06;;;;;;;4.50;2.22;;;-6.10;99.90;;;;;;5096079;28;20099;-65
2021/12/03 00:18:32;;;;;;;6.88;2.28;;;-6.00;99.90;;;;;;5095477;28;20111;-65
2021/12/03 00:21:02;;;;;;;6.18;2.20;;;-6.00;99.90;;;;;;5095749;28;20018;-65
2021/12/03 00:23:28;;;;;;;4.15;2.10;;;-6.00;99.90;;;;;;5095496;28;20035;-65
2021/12/03 00:26:00;;;;;;;5.70;2.35;;;-6.00;99.90;;;;;;5095452;28;20032;-65
2021/12/03 00:28:29;;;;;;;3.85;1.95;;;-6.00;99.90;;;;;;5095340;28;20024;-65
2021/12/03 00:30:55;;;;;;;4.35;2.20;;;-5.90;99.90;;;;;;5095496;28;20020;-65
2021/12/03 00:33:21;;;;;;;3.42;2.05;;;-5.90;99.90;;;;;;5095466;28;20028;-65
2021/12/03 00:35:47;;;;;;;3.78;2.30;;;-5.90;99.90;;;;;;5095582;28;20028;-65
2021/12/03 00:38:15;;;;;;;3.80;2.00;;;-5.80;99.90;;;;;;5095451;28;20024;-65
2021/12/03 00:40:40;;;;;;;6.90;2.40;;;-5.90;99.90;;;;;;5095475;28;20025;-65
2021/12/03 00:43:07;;;;;;;4.35;2.20;;;-5.80;99.90;;;;;;5095520;28;20081;-65
2021/12/03 00:45:33;;;;;;;2.00;1.80;;;-5.80;99.90;;;;;;5095092;28;20027;-65
2021/12/03 00:48:00;;;;;;;4.78;2.03;;;-5.80;99.90;;;;;;5095183;28;20036;-65
2021/12/03 00:50:27;;;;;;;4.63;2.15;;;-5.70;99.90;;;;;;5095031;28;20082;-65
2021/12/03 00:52:54;;;;;;;6.43;2.15;;;-5.70;99.90;;;;;;5095353;28;20507;-65
2021/12/03 00:55:22;;;;;;;4.43;2.05;;;-5.70;99.90;;;;;;5094937;28;20027;-65
2021/12/03 00:57:48;;;;;;;6.03;2.30;;;-5.60;99.90;;;;;;5095017;28;20031;-65
2021/12/03 01:00:22;;;;;;;4.68;2.05;;;-5.60;99.90;;;;;;5094826;28;20052;-65
2021/12/03 01:02:48;;;;;;;2.97;1.75;;;-5.50;99.90;;;;;;5095246;28;20020;-65
2021/12/03 01:05:14;;;;;;;7.00;2.53;;;-5.50;99.90;;;;;;5095160;28;20387;-65
2021/12/03 01:07:40;;;;;;;5.40;2.45;;;-5.40;99.90;;;;;;5094620;28;20038;-65
2021/12/03 01:10:08;;;;;;;6.13;2.20;;;-5.40;99.90;;;;;;5094728;28;20048;-67
2021/12/03 01:12:35;;;;;;;5.03;2.50;;;-5.40;99.90;;;;;;5094521;28;20055;-65
2021/12/03 01:15:03;;;;;;;6.07;2.05;;;-5.30;99.90;;;;;;5094970;28;20024;-65
2021/12/03 01:17:28;;;;;;;5.25;2.03;;;-5.30;99.90;;;;;;5094491;28;20050;-65
2021/12/03 01:19:54;;;;;;;4.50;2.00;;;-5.30;99.90;;;;;;5094894;28;20452;-65
2021/12/03 01:22:20;;;;;;;5.43;2.20;;;-5.20;99.90;;;;;;5094045;28;20075;-65
2021/12/03 01:24:46;;;;;;;2.40;2.20;;;-5.20;99.90;;;;;;5094149;28;20365;-65
2021/12/03 01:27:12;;;;;;;4.70;2.13;;;-5.10;99.90;;;;;;5094342;28;20031;-65
2021/12/03 01:29:37;;;;;;;5.50;2.30;;;-5.10;99.90;;;;;;5095082;28;20455;-65
2021/12/03 01:32:03;;;;;;;7.43;2.10;;;-5.10;99.90;;;;;;5094383;28;20467;-65
2021/12/03 01:34:29;;;;;;;3.15;2.08;;;-5.10;99.90;;;;;;5094200;28;20016;-65
2021/12/03 01:36:55;;;;;;;4.15;2.10;;;-5.10;99.90;;;;;;5094530;28;20383;-65
2021/12/03 01:39:20;;;;;;;3.85;2.20;;;-5.10;99.90;;;;;;5094087;28;20028;-65
2021/12/03 01:41:46;;;;;;;6.75;2.30;;;-5.10;99.90;;;;;;5094469;28;20161;-65
2021/12/03 01:44:12;;;;;;;2.90;1.80;;;-5.10;99.90;;;;;;5094415;28;20520;-67
2021/12/03 01:46:38;;;;;;;5.68;2.30;;;-5.10;99.90;;;;;;5093888;28;20068;-66
2021/12/03 01:49:06;;;;;;;3.38;1.85;;;-5.10;99.90;;;;;;5094302;28;20030;-66
2021/12/03 01:51:32;;;;;;;6.32;2.20;;;-5.10;99.90;;;;;;5093803;28;20492;-66
2021/12/03 01:53:58;;;;;;;3.63;2.20;;;-5.00;99.90;;;;;;5094216;28;20059;-66
2021/12/03 01:56:25;;;;;;;6.53;2.25;;;-5.00;99.90;;;;;;5093702;28;20024;-66
2021/12/03 01:58:53;;;;;;;6.85;2.58;;;-4.90;99.90;;;;;;5093738;28;20039;-67
2021/12/03 02:01:24;;;;;;;7.32;2.38;;;-4.90;99.90;;;;;;5094013;28;20036;-67
2021/12/03 02:03:55;;;;;;;3.58;2.20;;;-4.90;99.90;;;;;;5093916;28;20027;-66
2021/12/03 02:06:22;;;;;;;3.13;2.00;;;-4.90;99.90;;;;;;5093916;28;20052;-66
2021/12/03 02:08:48;;;;;;;5.30;2.25;;;-4.90;99.90;;;;;;5093747;28;20028;-66
2021/12/03 02:11:15;;;;;;;4.35;2.05;;;-4.90;99.90;;;;;;5093706;28;20107;-66
2021/12/03 02:13:42;;;;;;;4.03;2.30;;;-4.90;99.90;;;;;;5093724;28;20024;-66
2021/12/03 02:16:09;;;;;;;3.30;2.03;;;-4.90;99.90;;;;;;5093867;28;20028;-66
2021/12/03 02:18:34;;;;;;;7.72;2.55;;;-4.90;99.90;;;;;;5093546;28;20020;-66
2021/12/03 02:21:03;;;;;;;8.05;2.38;;;-4.80;99.90;;;;;;5093795;28;20523;-66
2021/12/03 02:23:29;;;;;;;6.07;2.10;;;-4.80;99.90;;;;;;5093170;28;20468;-66
2021/12/03 02:54:59;;;;;;;2.65;1.63;;;-4.60;99.90;;;;;;5092584;28;20036;-66
2021/12/03 02:57:25;;;;;;;5.07;2.20;;;-4.70;99.90;;;;;;5092733;28;20103;-66
2021/12/03 02:59:51;;;;;;;3.20;2.08;;;-4.70;99.90;;;;;;5092369;28;20040;-66
2021/12/03 03:02:18;;;;;;;6.30;2.47;;;-4.60;99.90;;;;;;5092688;28;20046;-66
2021/12/03 03:04:44;;;;;;;6.18;2.40;;;-4.60;99.90;;;;;;5092552;28;20029;-66
2021/12/03 03:07:09;;;;;;;3.63;2.00;;;-4.50;99.90;;;;;;5092625;28;20035;-66
2021/12/03 03:09:35;;;;;;;3.10;1.70;;;-4.50;99.90;;;;;;5092535;28;20051;-66
2021/12/03 03:12:01;;;;;;;7.03;2.50;;;-4.50;99.90;;;;;;5092696;28;20467;-66
2021/12/03 03:14:27;;;;;;;3.42;2.08;;;-4.50;99.90;;;;;;5092386;28;20468;-66
2021/12/03 03:16:53;;;;;;;7.93;2.05;;;-4.40;99.90;;;;;;5092662;28;20028;-66
2021/12/03 03:19:21;;;;;;;6.15;2.60;;;-4.40;99.90;;;;;;5092633;28;20034;-66
2021/12/03 03:21:47;;;;;;;6.65;2.00;;;-4.40;99.90;;;;;;5092373;28;20016;-66
2021/12/03 03:24:15;;;;;;;4.93;2.20;;;-4.30;99.90;;;;;;5092606;28;20032;-66
2021/12/03 03:26:44;;;;;;;8.18;2.30;;;-4.30;99.90;;;;;;5092509;28;20032;-66
2021/12/03 03:29:13;;;;;;;10.65;2.30;;;-4.30;99.90;;;;;;5092105;28;20020;-66
2021/12/03 03:31:39;;;;;;;6.65;2.40;;;-4.20;99.90;;;;;;5092615;28;20035;-66
2021/12/03 03:34:06;;;;;;;6.68;2.15;;;-4.00;99.90;;;;;;5092388;28;20024;-67
2021/12/03 03:36:37;;;;;;;7.63;1.85;;;-3.90;99.90;;;;;;5092476;28;20073;-66
2021/12/03 03:39:06;;;;;;;9.05;2.95;;;-3.80;99.90;;;;;;5092271;28;20043;-66
2021/12/03 03:41:33;;;;;;;6.82;2.28;;;-3.70;99.90;;;;;;5092370;28;20395;-66
2021/12/03 03:43:58;;;;;;;6.28;2.40;;;-3.60;99.90;;;;;;5092117;28;20027;-66
2021/12/03 03:46:24;;;;;;;10.65;2.28;;;-3.60;99.90;;;;;;5091610;28;20036;-66
2021/12/03 03:48:50;;;;;;;7.72;1.92;;;-3.50;99.90;;;;;;5091817;28;20088;-66
2021/12/03 03:51:16;;;;;;;17.20;2.55;;;-3.50;99.90;;;;;;5092244;28;20106;-66
2021/12/03 03:53:42;;;;;;;8.85;2.20;;;-3.40;99.90;;;;;;5091901;28;20020;-66
2021/12/03 03:56:09;;;;;;;8.80;2.30;;;-3.40;99.90;;;;;;5091809;28;20020;-66
2021/12/03 03:58:37;;;;;;;8.95;2.10;;;-3.30;99.90;;;;;;5091566;28;20475;-67
2021/12/03 04:01:05;;;;;;;10.15;2.20;;;-3.30;99.90;;;;;;5092057;28;20040;-66
2021/12/03 04:03:32;;;;;;;8.25;1.80;;;-3.30;99.90;;;;;;5092074;28;20103;-66
2021/12/03 04:05:59;;;;;;;10.65;2.35;;;-3.20;99.90;;;;;;5091703;28;20412;-66
2021/12/03 04:08:28;;;;;;;7.35;1.98;;;-3.20;99.90;;;;;;5091935;28;20074;-66
2021/12/03 04:10:55;;;;;;;6.22;2.03;;;-3.10;99.90;;;;;;5091954;28;20048;-66
2021/12/03 04:13:21;;;;;;;4.28;1.90;;;-3.10;99.90;;;;;;5091992;28;20032;-66
2021/12/03 04:15:48;;;;;;;8.25;1.80;;;-3.10;99.90;;;;;;5092026;28;20499;-66
2021/12/03 04:18:14;;;;;;;6.60;2.50;;;-3.10;99.90;;;;;;5091618;28;20468;-66
2021/12/03 04:20:39;;;;;;;9.85;2.10;;;-3.00;99.90;;;;;;5091682;28;20039;-66
2021/12/03 04:23:06;;;;;;;11.27;1.90;;;-3.00;99.90;;;;;;5091516;28;20115;-66
2021/12/03 04:25:33;;;;;;;8.05;2.25;;;-3.00;99.90;;;;;;5091664;28;20372;-66
2021/12/03 04:27:59;;;;;;;6.70;2.17;;;-3.00;99.90;;;;;;5091469;28;20072;-66
2021/12/03 04:30:28;;;;;;;7.60;2.17;;;-2.90;99.90;;;;;;5091701;28;20105;-66
2021/12/03 04:32:54;;;;;;;9.35;2.53;;;-2.90;99.90;;;;;;5091383;28;20069;-66
2021/12/03 04:35:22;;;;;;;5.82;2.60;;;-2.90;99.90;;;;;;5091872;28;20024;-66
2021/12/03 04:37:47;;;;;;;6.20;1.95;;;-2.90;99.90;;;;;;5091777;28;20024;-66
2021/12/03 04:40:17;;;;;;;4.35;1.92;;;-2.80;99.90;;;;;;5091398;28;20364;-66
2021/12/03 04:42:43;;;;;;;6.05;1.80;;;-2.80;99.90;;;;;;5091366;28;20057;-66
2021/12/03 04:45:11;;;;;;;6.05;2.25;;;-2.80;99.90;;;;;;5091695;28;20586;-66
2021/12/03 04:47:38;;;;;;;9.27;2.05;;;-2.80;99.90;;;;;;5091737;28;20111;-66
2021/12/03 04:50:06;;;;;;;8.93;2.17;;;-2.80;99.90;;;;;;5091413;28;20454;-66
2021/12/03 04:52:32;;;;;;;6.45;2.25;;;-2.80;99.90;;;;;;5091445;28;20024;-66
2021/12/03 04:54:57;;;;;;;8.82;1.95;;;-2.80;99.90;;;;;;5091271;28;20016;-66
2021/12/03 04:57:23;;;;;;;7.90;2.60;;;-2.70;99.90;;;;;;5091759;28;20027;-66
2021/12/03 04:59:49;;;;;;;12.70;3.13;;;-2.70;99.90;;;;;;5094655;28;20044;-66
2021/12/03 05:02:15;;;;;;;10.88;2.35;;;-2.70;99.90;;;;;;5094897;28;20028;-66
2021/12/03 05:04:42;;;;;;;7.22;2.33;;;-2.70;99.90;;;;;;5095212;28;20031;-66
2021/12/03 05:09:35;;;;;;;11.23;1.70;;;-2.60;99.90;;;;;;5094732;28;20432;-65
2021/12/03 05:12:02;;;;;;;10.15;3.03;;;-2.50;99.90;;;;;;5094706;28;20542;-67
2021/12/03 05:14:28;;;;;;;7.45;2.67;;;-2.50;99.90;;;;;;5094948;28;20102;-66
2021/12/03 05:16:54;;;;;;;12.45;2.28;;;-2.50;99.90;;;;;;5094844;28;20078;-67
2021/12/03 05:19:20;;;;;;;7.70;2.30;;;-2.40;99.90;;;;;;5094718;28;20391;-65
2021/12/03 05:21:46;;;;;;;9.10;2.80;;;-2.40;99.90;;;;;;5094868;28;20020;-65
2021/12/03 05:24:12;;;;;;;12.18;2.33;;;-2.30;99.90;;;;;;5094603;28;20028;-65
2021/12/03 05:26:39;;;;;;;5.38;2.00;;;-2.30;99.90;;;;;;5094444;28;20024;-65
2021/12/03 05:29:06;;;;;;;9.35;1.98;;;-2.20;99.90;;;;;;5094482;28;20173;-65
2021/12/03 05:31:34;;;;;;;15.40;2.22;;;-2.20;99.90;;;;;;5094478;28;20024;-65
2021/12/03 05:34:02;;;;;;;7.22;1.75;;;-2.10;99.90;;;;;;5094373;28;20036;-65
2021/12/03 05:36:28;;;;;;;11.73;1.67;;;-2.10;99.90;;;;;;5094218;28;20066;-65
2021/12/03 05:38:53;;;;;;;4.65;1.77;;;-2.10;99.90;;;;;;5094276;28;20057;-66
2021/12/03 05:41:19;;;;;;;5.72;1.95;;;-1.80;99.90;;;;;;5094362;28;20059;-64
2021/12/03 05:43:45;;;;;;;9.48;2.03;;;-1.70;99.90;;;;;;5093264;28;20531;-66
2021/12/03 05:46:11;;;;;;;9.13;1.83;;;-1.80;99.90;;;;;;5096440;28;20040;-65
2021/12/03 05:48:37;;;;;;;8.45;2.35;;;-1.80;99.90;;;;;;5093655;28;20551;-65
2021/12/03 05:51:03;;;;;;;11.13;2.00;;;-1.80;99.90;;;;;;5093342;28;20028;-66
2021/12/03 05:53:28;;;;;;;8.90;2.22;;;-1.80;99.90;;;;;;5093664;28;20062;-65
2021/12/03 05:55:54;;;;;;;3.42;1.75;;;-1.80;99.90;;;;;;5093516;28;20487;-67
2021/12/03 05:58:20;;;;;;;12.05;2.17;;;-1.80;99.90;;;;;;5093445;28;20460;-65
2021/12/03 06:00:47;;;;;;;5.80;1.95;;;-1.80;99.90;;;;;;5095481;28;20496;-69
2021/12/03 06:03:13;;;;;;;10.43;1.67;;;-1.80;99.90;;;;;;5092968;28;20605;-63
2021/12/03 06:05:40;;;;;;;6.10;1.65;;;-1.80;99.90;;;;;;5101706;28;20033;-63
2021/12/03 06:08:06;;;;;;;5.28;1.92;;;-1.70;99.90;;;;;;5104043;28;20028;-63
2021/12/03 06:10:33;;;;;;;6.13;1.85;;;-1.80;99.90;;;;;;5095856;28;20028;-63
2021/12/03 06:12:59;;;;;;;9.18;2.50;;;-1.80;99.90;;;;;;5092973;28;20063;-63
2021/12/03 06:15:25;;;;;;;5.50;1.75;;;-1.80;99.90;;;;;;5095856;28;20056;-63
2021/12/03 06:17:51;;;;;;;4.90;1.63;;;-1.80;99.90;;;;;;5093465;28;20020;-66
2021/12/03 06:20:17;;;;;;;5.70;1.88;;;-1.80;99.90;;;;;;5093569;28;20079;-66
2021/12/03 06:22:43;;;;;;;6.22;1.80;;;-1.80;99.90;;;;;;5096056;28;20031;-64
2021/12/03 06:25:11;;;;;;;4.00;1.42;;;-1.80;99.90;;;;;;5093240;28;20027;-65
2021/12/03 06:27:38;;;;;;;7.95;1.70;;;-1.80;99.90;;;;;;5093233;28;20484;-65
2021/12/03 06:30:10;;;;;;;6.95;1.55;;;-1.80;99.90;;;;;;5093450;28;20484;-64
2021/12/03 06:32:37;;;;;;;5.00;1.80;;;-1.60;99.90;;;;;;5093273;28;20024;-64
2021/12/03 06:35:04;;;;;;;6.30;1.50;;;-1.70;99.90;;;;;;5092990;28;20020;-64
2021/12/03 06:37:30;;;;;;;5.60;1.80;;;-1.70;99.90;;;;;;5093370;28;20141;-64
2021/12/03 06:39:56;;;;;;;4.20;1.58;;;-1.80;99.90;;;;;;5093206;28;20099;-64
2021/12/03 06:42:21;;;;;;;5.38;1.55;;;-1.80;99.90;;;;;;5092933;28;20020;-64
2021/12/03 06:44:47;;;;;;;4.50;1.85;;;-1.80;99.90;;;;;;5092704;28;20069;-64
2021/12/03 06:47:13;;;;;;;6.20;1.70;;;-1.80;99.90;;;;;;5092588;28;20036;-64
2021/12/03 06:49:39;;;;;;;5.57;1.70;;;-1.80;99.90;;;;;;5092793;28;20529;-64
2021/12/03 06:52:08;;;;;;;6.15;1.70;;;-1.80;99.90;;;;;;5092750;28;20028;-64
2021/12/03 06:54:35;;;;;;;3.75;1.52;;;-1.80;99.90;;;;;;5092767;28;20062;-65
2021/12/03 06:57:04;;;;;;;8.65;1.95;;;-1.80;99.90;;;;;;5092812;28;20028;-64
2021/12/03 06:59:31;;;;;;;4.15;1.80;;;-1.40;99.90;;;;;;5092582;28;20334;-66
2021/12/03 07:01:58;;;;;;;5.43;1.63;;;-1.30;99.90;;;;;;5092950;28;20048;-65
2021/12/03 07:04:24;;;;;;;10.77;2.08;;;-1.50;99.90;;;;;;5092528;28;20024;-65
2021/12/03 07:06:51;;;;;;;5.40;1.52;;;-1.60;99.90;;;;;;5092759;28;20036;-66
2021/12/03 07:09:17;;;;;;;6.72;1.73;;;-1.70;99.90;;;;;;5092285;28;20528;-66
2021/12/03 07:11:43;;;;;;;5.35;1.80;;;-1.50;99.90;;;;;;5092051;28;20120;-66
2021/12/03 07:14:09;;;;;;;4.45;1.90;;;-1.60;99.90;;;;;;5092635;28;20129;-66
2021/12/03 07:16:36;;;;;;;5.72;1.73;;;-1.70;99.90;;;;;;5092357;28;20028;-65
2021/12/03 07:19:02;;;;;;;5.13;1.55;;;-1.70;99.90;;;;;;5093411;28;20024;-65
2021/12/03 07:21:28;;;;;;;6.80;1.92;;;-1.70;99.90;;;;;;5091412;28;20027;-66
2021/12/03 07:23:54;;;;;;;8.65;1.75;;;-1.70;99.90;;;;;;5094684;28;20024;-65
2021/12/03 07:26:23;;;;;;;5.20;1.98;;;-1.70;99.90;;;;;;5092062;28;20080;-66
2021/12/03 07:28:50;;;;;;;4.90;1.83;;;-1.70;99.90;;;;;;5091955;28;20523;-66
2021/12/03 07:31:16;;;;;;;6.35;2.00;;;-1.80;99.90;;;;;;5091562;28;20031;-64
2021/12/03 07:33:41;;;;;;;8.52;2.38;;;-1.80;99.90;;;;;;5091972;28;20024;-64
2021/12/03 07:36:07;;;;;;;6.57;1.83;;;-1.80;99.90;;;;;;5092036;28;20039;-65
2021/12/03 07:38:35;;;;;;;4.95;1.85;;;-1.60;99.90;;;;;;5092163;28;20012;-64
2021/12/03 07:41:01;;;;;;;5.88;1.98;;;-0.80;99.90;;;;;;5092343;28;20078;-64
2021/12/03 07:43:27;;;;;;;6.10;1.60;;;-0.90;99.90;;;;;;5092254;28;20380;-63
2021/12/03 07:45:53;;;;;;;7.00;1.77;;;-1.20;99.90;;;;;;5091937;28;20028;-64
2021/12/03 07:48:21;;;;;;;6.40;1.85;;;-1.50;99.90;;;;;;5091881;28;20039;-63
2021/12/03 07:50:48;;;;;;;6.47;1.83;;;-1.60;99.90;;;;;;5092334;28;20034;-64
2021/12/03 07:53:17;;;;;;;8.77;2.05;;;-1.70;99.90;;;;;;5092088;28;20078;-64
2021/12/03 07:55:44;;;;;;;7.55;1.90;;;-1.80;99.90;;;;;;5091878;28;20024;-64
2021/12/03 07:58:10;;;;;;;9.15;2.20;;;-1.90;99.90;;;;;;5091584;28;20483;-63
2021/12/03 08:00:37;;;;;;;8.52;1.70;;;-1.90;99.90;;;;;;5091518;28;20056;-64
2021/12/03 08:03:03;;;;;;;7.22;2.08;;;-1.90;99.90;;;;;;5091741;28;20028;-63
2021/12/03 08:05:29;;;;;;;4.90;1.88;;;-0.80;99.90;;;;;;5091601;28;20430;-64
2021/12/03 08:07:55;;;;;;;7.25;2.15;;;-0.90;99.90;;;;;;5091016;28;20035;-63
2021/12/03 08:10:21;;;;;;;8.93;1.88;;;-1.20;99.90;;;;;;5093267;28;20055;-64
2021/12/03 08:12:47;;;;;;;6.40;1.80;;;-1.40;99.90;;;;;;5111096;28;20180;-66
2021/12/03 08:15:15;;;;;;;6.25;1.83;;;-1.60;99.90;;;;;;5111825;28;20044;-65
2021/12/03 08:17:41;;;;;;;7.63;2.15;;;-1.70;99.90;;;;;;5110796;28;20024;-65
2021/12/03 08:20:08;;;;;;;8.90;2.03;;;-1.70;99.90;;;;;;5111815;28;20012;-65
2021/12/03 08:22:35;;;;;;;10.85;2.45;;;-1.80;99.90;;;;;;5112235;28;20055;-65
2021/12/03 08:25:02;;;;;;;14.05;2.55;;;-1.80;99.90;;;;;;5111975;28;20047;-65
2021/12/03 08:27:28;;;;;;;10.73;2.17;;;-1.90;99.90;;;;;;5111852;28;20441;-65
2021/12/03 08:29:54;;;;;;;12.50;2.63;;;-1.90;99.90;;;;;;5111980;28;20534;-65
2021/12/03 08:32:19;;;;;;;11.57;2.30;;;-1.90;99.90;;;;;;5111861;28;20135;-65
2021/12/03 08:34:45;;;;;;;5.13;1.65;;;-1.90;99.90;;;;;;5116103;27;20107;-64
2021/12/03 08:37:11;;;;;;;5.60;1.60;;;-2.00;99.90;;;;;;5115702;28;20415;-65
2021/12/03 08:39:37;;;;;;;7.78;1.98;;;-1.90;99.90;;;;;;5109164;28;20027;-65
2021/12/03 08:42:05;;;;;;;6.97;1.73;;;-1.90;99.90;;;;;;5097432;28;20028;-64
2021/12/03 08:44:31;;;;;;;8.93;1.92;;;-1.70;99.90;;;;;;5099382;28;20178;-65
2021/12/03 08:46:59;;;;;;;6.55;1.90;;;-1.50;99.90;;;;;;5095614;27;20043;-63
2021/12/03 08:52:24;;;;;;;5.18;1.85;;;-1.70;99.90;;;;;;5097590;28;20027;-63
2021/12/03 08:54:53;;;;;;;;;;;-1.80;99.90;;;;;;5100614;28;20488;-63
2021/12/03 08:57:31;;;;;;;16.25;1.75;;;-1.90;99.90;;;;;;5097019;28;19904;-63
2021/12/03 09:00:00;;;;;;;9.95;1.88;;;-1.90;99.90;;;;;;5096454;28;20044;-63
2021/12/03 09:02:25;;;;;;;10.00;2.10;;;-1.90;99.90;;;;;;5094941;28;20020;-64
2021/12/03 09:04:51;;;;;;;7.22;1.38;;;-1.90;99.90;;;;;;5094828;28;20028;-65
2021/12/03 09:07:17;;;;;;;10.60;1.90;;;-2.00;99.90;;;;;;5096088;28;20089;-66
2021/12/03 09:09:43;;;;;;;6.95;1.90;;;-2.00;99.90;;;;;;5094733;28;20475;-65
2021/12/03 09:12:10;;;;;;;7.85;1.73;;;-2.00;99.90;;;;;;5094520;28;20031;-65
2021/12/03 09:18:04;;;;;;;7.50;1.90;;;-2.00;99.90;;;;;;5080883;28;20023;-66
2021/12/03 09:23:06;;;;;;;8.00;1.77;;;-2.00;99.90;;;;;;5099796;28;20049;-65
2021/12/03 09:25:35;;;;;;;3.72;1.65;;;-2.00;99.90;;;;;;5114823;28;20030;-66
2021/12/03 09:28:04;;;;;;;2.83;1.50;;;-2.00;99.90;;;;;;5114576;28;20522;-67
2021/12/03 09:30:39;;;;;;;11.05;2.13;;;-1.80;99.90;;;;;;5097001;28;20119;-66
2021/12/03 09:33:08;;;;;;;4.78;1.60;;;-1.70;99.90;;;;;;5094371;28;20495;-66
2021/12/03 09:35:39;;;;;;;7.43;2.25;;;-1.80;99.90;;;;;;5094260;28;20496;-66
2021/12/03 09:38:05;;;;;;;6.10;1.70;;;-1.90;99.90;;;;;;5094189;28;20039;-66
2021/12/03 09:40:32;;;;;;;7.20;1.48;;;-1.90;99.90;;;;;;5094081;28;20024;-66
2021/12/03 09:42:58;;;;;;;5.75;1.70;;;-1.50;99.90;;;;;;5095309;28;20028;-65
2021/12/03 09:45:24;;;;;;;8.50;1.88;;;-1.60;99.90;;;;;;5113840;28;20084;-64
2021/12/03 09:47:51;;;;;;;4.80;1.13;;;-1.70;99.90;;;;;;5114248;28;20242;-64
2021/12/03 09:50:17;;;;;;;5.38;1.55;;;-1.70;99.90;;;;;;5112920;28;20085;-65
2021/12/03 09:53:04;;;;;;;5.38;1.67;;;-1.80;99.90;;;;;;5114485;28;20437;-65
2021/12/03 09:55:31;;;;;;;5.95;1.92;;;-1.80;99.90;;;;;;5098831;28;20036;-64
2021/12/03 10:23:28;;;;;;;9.13;1.38;;;-2.00;99.90;;;;;;5114161;28;20031;-65
2021/12/03 10:28:31;;;;;;;3.50;1.20;;;-2.00;99.90;;;;;;5113584;28;20061;-65
2021/12/03 10:39:26;;;;;;;9.35;1.55;;;-2.00;99.90;;;;;;5113913;28;20107;-65
2021/12/03 10:41:58;;;;;;;6.32;1.67;;;-2.10;99.90;;;;;;5111370;28;20058;-65
2021/12/03 10:44:35;;;;;;;3.70;1.55;;;-2.10;99.90;;;;;;5113233;27;20483;-65
2021/12/03 11:08:14;;;;;;;6.10;1.40;;;-2.30;99.90;;;;;;5109072;28;20073;-66
2021/12/03 14:32:06;;;;;;;2.08;1.50;;;-4.60;99.90;;;;;;5087013;28;20513;-63
2021/12/03 14:38:41;;;;;;;4.82;2.20;;;-4.70;99.90;;;;;;5089776;28;20040;-63
2021/12/03 14:57:12;;;;;;;6.85;2.10;;;-4.70;99.90;;;;;;5112371;28;20425;-64
2021/12/03 14:59:48;;;;;;;2.97;1.63;;;-4.70;99.90;;;;;;5111931;28;20039;-64
2021/12/03 15:07:35;;;;;;;6.47;2.30;;;-3.90;99.90;;;;;;5104885;28;20043;-72
2021/12/03 15:10:05;;;;;;;5.93;2.10;;;-4.10;99.90;;;;;;5099397;28;20521;-67
2021/12/03 15:14:03;;;;;;;8.05;1.95;;;-4.30;99.90;;;;;;5111552;28;20411;-67
2021/12/03 15:36:11;;;;;;;2.83;1.70;;;-4.60;99.90;;;;;;5092066;28;20017;-67
2021/12/03 15:38:50;;;;;;;3.38;2.05;;;-4.50;99.90;;;;;;5092072;28;20020;-67
2021/12/03 15:52:06;;;;;;;3.88;1.70;;;-4.50;99.90;;;;;;5092073;28;20086;-67
2021/12/03 16:13:43;;;;;;;6.97;1.73;;;-4.30;99.90;;;;;;5091792;28;20053;-67
2021/12/03 16:53:54;;;;;;;3.00;1.67;;;-3.70;99.90;;;;;;5108536;28;20452;-67
2021/12/03 16:56:27;;;;;;;2.72;1.45;;;-3.30;99.90;;;;;;5102997;28;20048;-67
2021/12/03 16:58:56;;;;;;;3.75;1.88;;;-3.30;99.90;;;;;;5102495;28;20040;-67
2021/12/03 17:12:04;;;;;;;11.50;2.85;;;-3.70;99.90;;;;;;5095086;28;20016;-67
2021/12/03 17:14:48;;;;;;;3.80;2.05;;;-3.70;99.90;;;;;;5101716;28;20039;-67
2021/12/03 17:25:42;;;;;;;4.18;1.88;;;-3.20;99.90;;;;;;5094207;28;20497;-67
2021/12/03 18:00:05;;;;;;;4.40;1.75;;;-2.30;99.90;;;;;;5093842;28;20044;-67
2021/12/03 18:02:51;;;;;;;3.10;1.45;;;-2.30;99.90;;;;;;5093691;28;20437;-68
2021/12/03 18:07:55;;;;;;;5.43;1.67;;;-2.30;99.90;;;;;;5093891;28;20036;-68
2021/12/03 18:13:45;;;;;;;5.82;1.73;;;-2.20;99.90;;;;;;5094047;28;20094;-68
2021/12/03 18:16:36;;;;;;;3.10;1.75;;;-2.20;99.90;;;;;;5093477;28;20498;-68
2021/12/03 18:51:39;;;;;;;2.25;1.63;;;-2.20;99.90;;;;;;5093555;28;20357;-67
2021/12/03 18:56:55;;;;;;;6.00;2.45;;;-2.30;99.90;;;;;;5092615;28;20055;-68
2021/12/03 18:59:21;;;;;;;5.95;1.90;;;-2.20;99.90;;;;;;5091874;28;20035;-67
2021/12/03 19:01:47;;;;;;;8.75;1.80;;;-2.20;99.90;;;;;;5091411;28;20583;-67
2021/12/03 19:06:55;;;;;;;6.25;1.63;;;-1.80;99.90;;;;;;5092359;28;20566;-68
2021/12/03 19:09:32;;;;;;;4.63;1.67;;;-2.00;99.90;;;;;;5091403;28;20032;-68
2021/12/03 19:14:24;;;;;;;4.30;1.42;;;-2.20;99.90;;;;;;5091805;28;20395;-68
2021/12/03 19:16:50;;;;;;;5.93;1.65;;;-2.20;99.90;;;;;;5091647;28;20043;-68
2021/12/03 19:19:16;;;;;;;3.67;1.40;;;-2.20;99.90;;;;;;5092570;28;20162;-68
2021/12/03 19:21:44;;;;;;;5.30;1.60;;;-2.20;99.90;;;;;;5092430;28;20056;-68
2021/12/03 19:24:13;;;;;;;7.90;1.90;;;-2.30;99.90;;;;;;5091218;28;20027;-68
2021/12/03 19:26:45;;;;;;;3.03;1.95;;;-2.30;99.90;;;;;;5092353;28;20115;-68
2021/12/03 19:29:14;;;;;;;3.75;1.63;;;-2.30;99.90;;;;;;5092173;28;20407;-68
2021/12/03 19:31:41;;;;;;;6.15;1.70;;;-2.30;99.90;;;;;;5092122;28;20095;-68
2021/12/03 19:34:09;;;;;;;5.45;1.42;;;-2.30;99.90;;;;;;5094923;28;20475;-67
2021/12/03 19:36:40;;;;;;;6.30;2.10;;;-2.40;99.90;;;;;;5105113;28;20020;-68
2021/12/03 19:39:09;;;;;;;8.38;2.33;;;-2.40;99.90;;;;;;5092371;28;20027;-68
2021/12/03 19:44:03;;;;;;;3.90;1.42;;;-2.40;99.90;;;;;;5092533;28;20659;-67
2021/12/03 19:46:35;;;;;;;6.00;1.80;;;-2.50;99.90;;;;;;5092021;28;20032;-67
2021/12/03 19:49:14;;;;;;;3.60;1.67;;;-2.40;99.90;;;;;;5092452;28;20036;-68
2021/12/03 19:51:47;;;;;;;3.13;1.30;;;-2.50;99.90;;;;;;5090960;28;20055;-68
2021/12/03 19:54:14;;;;;;;2.90;1.50;;;-2.50;99.90;;;;;;5092119;28;20498;-67
2021/12/03 19:56:40;;;;;;;4.13;1.52;;;-2.50;99.90;;;;;;5091761;28;20028;-67
2021/12/03 19:59:07;;;;;;;5.95;1.40;;;-2.50;99.90;;;;;;5092034;28;20119;-67
2021/12/03 20:01:35;;;;;;;6.85;1.58;;;-2.50;99.90;;;;;;5091924;28;20032;-68
2021/12/03 20:04:01;;;;;;;1.80;1.23;;;-2.50;99.90;;;;;;5092153;28;20399;-68
2021/12/03 20:06:28;;;;;;;3.28;1.42;;;-2.50;99.90;;;;;;5091696;28;20028;-67
2021/12/03 20:08:56;;;;;;;4.88;1.60;;;-2.50;99.90;;;;;;5091809;28;20118;-67
2021/12/03 20:11:29;;;;;;;5.32;1.65;;;-2.50;99.90;;;;;;5091795;28;20012;-67
2021/12/03 20:14:00;;;;;;;3.85;1.58;;;-2.50;99.90;;;;;;5091857;28;20024;-67
2021/12/03 20:16:30;;;;;;;3.10;1.30;;;-2.40;99.90;;;;;;5092049;28;20121;-67
2021/12/03 20:19:05;;;;;;;3.55;1.73;;;-2.40;99.90;;;;;;5091877;28;20020;-67
2021/12/03 20:21:32;;;;;;;3.25;1.67;;;-2.40;99.90;;;;;;5091772;28;20028;-67
2021/12/03 20:29:21;;;;;;;3.83;1.30;;;-2.20;99.90;;;;;;5094717;28;20016;-67
2021/12/03 20:31:59;;;;;;;4.80;1.50;;;-1.70;99.90;;;;;;5094607;28;20032;-67
2021/12/03 20:37:21;;;;;;;2.35;1.35;;;-2.00;99.90;;;;;;5095980;28;20035;-69
2021/12/03 20:39:48;;;;;;;5.53;1.70;;;-2.10;99.90;;;;;;5095551;28;20028;-69
2021/12/03 20:42:25;;;;;;;2.20;1.30;;;-2.20;99.90;;;;;;5095508;28;20024;-69
2021/12/03 21:08:25;;;;;;;4.40;1.35;;;-2.30;99.90;;;;;;5094897;28;20039;-69
2021/12/03 21:10:54;;;;;;;4.55;1.20;;;-2.30;99.90;;;;;;5094952;28;20050;-70
2021/12/03 21:13:25;;;;;;;1.67;1.10;;;-2.30;99.90;;;;;;5093552;28;20020;-69
2021/12/03 21:21:59;;;;;;;2.28;1.27;;;-2.30;99.90;;;;;;5094768;28;20054;-70
2021/12/03 21:23:58;;;;;;;3.83;1.13;;;-2.30;99.90;;;;;;5086527;28;20479;-69
2021/12/03 21:26:25;;;;;;;2.47;1.38;;;-2.40;99.90;;;;;;5093761;28;20032;-70
2021/12/03 21:42:13;;;;;;;4.32;1.30;;;-1.70;99.90;;;;;;5093628;28;20020;-66
2021/12/03 21:44:38;;;;;;;2.50;1.10;;;-1.80;99.90;;;;;;5096745;28;20028;-66
2021/12/03 21:47:04;;;;;;;2.88;1.10;;;-2.10;99.90;;;;;;5093587;28;20093;-66
2021/12/03 21:49:30;;;;;;;2.13;1.30;;;-2.20;99.90;;;;;;5094046;28;20016;-66
2021/12/03 21:51:57;;;;;;;3.85;1.50;;;-2.40;99.90;;;;;;5093705;28;20032;-66
2021/12/03 21:54:24;;;;;;;1.77;1.10;;;-2.50;99.90;;;;;;5093198;28;20055;-66
2021/12/03 21:56:55;;;;;;;2.70;1.10;;;-2.50;99.90;;;;;;5093428;28;20044;-66
2021/12/03 21:59:20;;;;;;;1.63;1.00;;;-2.50;99.90;;;;;;5094145;28;20051;-68
2021/12/03 22:01:47;;;;;;;4.20;1.48;;;-2.60;99.90;;;;;;5094222;28;20023;-68
2021/12/03 22:04:12;;;;;;;6.47;1.75;;;-2.60;99.90;;;;;;5093836;28;20028;-67
2021/12/03 22:06:40;;;;;;;8.05;1.63;;;-2.60;99.90;;;;;;5093431;28;20110;-67
2021/12/03 22:09:05;;;;;;;3.03;1.23;;;-2.60;99.90;;;;;;5093296;28;20111;-67
2021/12/03 22:11:32;;;;;;;5.38;1.48;;;-2.60;99.90;;;;;;5093062;28;20115;-67